Current | Forecast
Updated: 2:00 PM CET on February 20, 2018
Observed at Vitoria, Spain
Temperature 8°C
Windchill 5°C
Humidity 76%
Dew Point 4°C
Wind NW at 18 km/h
Pressure 1021 hPa (Steady)
Conditions Light Rain
Visibility 9.0 kilometers
UV 3 out of 16
Clouds (FEW) : 609 m
Mostly Cloudy (BKN) : 853 m
Yesterday's Maximum 10°C
Yesterday's Minimum 8°C approx.
Yesterday's Heating Degree Days 17 approx.
Sunrise8:00 AM CET
Sunset6:48 PM CET
Moon Rise10:29 AM CET
Moon Set11:39 PM CET
Moon PhaseMoon Phase
Waxing Crescent
Raw METARMETAR LEVT 201300Z 32010KT 9000 -RA FEW020 BKN028 08/04 Q1021


Monday
. High: 80° F.
Tuesday
. High: 87° F.
Wednesday
. High: 73° F.
Thursday
. High: 69° F.
Friday
. High: 82° F.
Saturday
. High: 75° F.
Sunday
. High: 73° F.
Monday
. High: 86° F.

Click here for Marine Information
Scientific forecaster discussion (NWS)

Units: English | Metric

Find the Weather for any City, State or Zipcode, or Country:

U.S. State List | Severe Weather | Tropical Storms | Ski Conditions
United States | Canada | Central America | South America | Asia | Europe | Australia | Africa | Islands

Weather Underground

© Copyright 2018
The Weather Company, LLC